Westmount, Canada
Current Conditions -  °F | °C
As of 8:00 PM on Saturday 22 Nov 2014 (Local Time) from CYUL Reporting Station
Rain Showers Rain Showers  
Wind Chill: 28°   Ceiling: 1300
Heat Index: 36°   Visibility: 15mi
Dew Point: 32°   Wind: 10mph
Humidity: 87%   Direction: 230°SW
Pressure: 29.89"   Gusts: NA
Location:  45.48°N, 73.6°W
Report Text: CYUL 230100Z 23009KT 15SM -SHRA OVC013 02/00 A2989 RMK ST8 SLP124
Loading
Personal Weather Stations






























Interactive Weather Map New forecast layout! Learn more

10-Day Weather Forecast

Advertisements
Track Severe Weather on mobile